Naval Air Station Kingsville

Airport
ICAO code: 
KNQI
Summary
ICAO Region: 
NAM
Territory: 
Location: 
Kingsville, Texas,
Coordinates: 
Aerial View: 
27° 30' 26.003" N, 97° 48' 35.003" W
Airport LOS: 
Parallel Runway Operation
Metar
Observation
KNQI 040729Z AUTO 00000KT 1/4SM FG VV002 18/18 A3000 RMK AO2 T01780178 $
Station
Kingsville, Naval Air Station
Date/Time
2021-12-04 07:29:00
Wind direction
Wind speed
00 kts
Lowest cloud amount
n/a
Temperature
17.8°C
Dew point
17.8°C
Humidity
100%
Weather condition
fog

Description

Naval Air Station Kingsville or NAS Kingsville,is a military airport located 5 km east of Kingsville, Texas.

Climatology

Humid “subtropical” climate (Köppen climate classification Cfa) - characterized by hot, humid summers and mild winters. Most rainfall occurs during summer and is often associated with thunderstorms and occasional tropical storms (hurricanes).

Runways

Designator Length Width Surface Rops
13L/31R 2438 61 PEM No/No
13R/31L 2438 61 PEM No/No
17L/35R 2438 61 PEM No/No
17R/35L 2438 61 PEM No/No
Airport map: 
Aerial View: 

SKYbrary Partners:

Safety knowledge contributed by: